createdAt,value
2022-11-24T00:01:18.009Z,5.80
2022-11-24T00:03:45.685Z,5.93
2022-11-24T00:06:15.615Z,6.20
2022-11-24T00:08:44.262Z,8.07
2022-11-24T00:11:16.644Z,7.27
2022-11-24T00:13:44.305Z,7.00
2022-11-24T00:16:19.707Z,7.87
2022-11-24T00:18:48.983Z,10.33
2022-11-24T00:21:16.966Z,7.77
2022-11-24T00:23:44.555Z,6.50
2022-11-24T00:26:26.654Z,7.77
2022-11-24T00:28:55.110Z,8.73
2022-11-24T00:31:36.727Z,6.33
2022-11-24T00:34:10.110Z,8.40
2022-11-24T00:36:37.277Z,7.03
2022-11-24T00:39:07.135Z,5.43
2022-11-24T00:41:34.255Z,7.63
2022-11-24T00:44:01.702Z,5.23
2022-11-24T00:46:28.611Z,9.03
2022-11-24T00:48:55.758Z,9.10
2022-11-24T00:51:26.904Z,8.60
2022-11-24T00:53:55.375Z,8.73
2022-11-24T00:56:21.990Z,8.23
2022-11-24T00:58:48.595Z,6.27
2022-11-24T01:01:18.483Z,7.87
2022-11-24T01:03:46.681Z,6.83
2022-11-24T01:06:14.873Z,10.43
2022-11-24T01:08:42.133Z,10.03
2022-11-24T01:11:13.200Z,9.73
2022-11-24T01:13:41.623Z,8.93
2022-11-24T01:16:38.673Z,8.10
2022-11-24T01:19:05.243Z,14.77
2022-11-24T01:21:31.810Z,9.10
2022-11-24T01:23:58.378Z,8.40
2022-11-24T01:26:24.993Z,6.63
2022-11-24T01:28:56.206Z,10.80
2022-11-24T01:31:23.403Z,10.53
2022-11-24T01:33:50.523Z,11.23
2022-11-24T01:36:17.304Z,13.83
2022-11-24T01:38:43.886Z,13.23
2022-11-24T01:41:11.908Z,8.33
2022-11-24T01:43:39.156Z,15.33
2022-11-24T01:46:35.843Z,9.73
2022-11-24T01:49:08.457Z,8.97
2022-11-24T01:51:40.535Z,7.50
2022-11-24T01:54:19.731Z,8.53
2022-11-24T01:56:51.391Z,7.70
2022-11-24T01:59:20.402Z,10.23
2022-11-24T02:01:50.178Z,12.83
2022-11-24T02:04:23.775Z,16.47
2022-11-24T02:06:51.997Z,13.87
2022-11-24T02:09:32.695Z,10.90
2022-11-24T02:12:00.910Z,9.93
2022-11-24T02:14:27.941Z,12.10
2022-11-24T02:16:54.589Z,11.70
2022-11-24T02:19:39.249Z,7.53
2022-11-24T02:22:13.550Z,10.20
2022-11-24T02:25:01.697Z,10.80
2022-11-24T02:27:28.682Z,12.57
2022-11-24T02:29:55.329Z,7.73
2022-11-24T02:32:23.127Z,9.77
2022-11-24T02:34:49.828Z,12.73
2022-11-24T02:37:16.453Z,11.40
2022-11-24T02:39:43.032Z,8.20
2022-11-24T02:42:12.927Z,9.57
2022-11-24T02:44:43.280Z,12.00
2022-11-24T02:47:11.940Z,11.00
2022-11-24T02:49:39.137Z,8.63
2022-11-24T02:52:07.047Z,12.97
2022-11-24T02:54:34.088Z,8.43
2022-11-24T02:57:01.255Z,14.33
2022-11-24T02:59:27.856Z,14.07
2022-11-24T03:01:54.487Z,6.30
2022-11-24T03:04:21.126Z,11.70
2022-11-24T03:06:47.929Z,13.13
2022-11-24T03:09:14.531Z,8.00
2022-11-24T03:11:41.217Z,9.73
2022-11-24T03:14:08.148Z,11.03
2022-11-24T03:16:35.430Z,15.63
2022-11-24T03:19:02.471Z,10.67
2022-11-24T03:21:29.198Z,11.10
2022-11-24T03:23:56.200Z,16.43
2022-11-24T03:26:24.414Z,14.23
2022-11-24T03:28:55.155Z,12.67
2022-11-24T03:31:22.919Z,13.57
2022-11-24T03:33:49.579Z,12.03
2022-11-24T03:36:16.745Z,13.57
2022-11-24T03:38:43.839Z,11.97
2022-11-24T03:41:10.621Z,10.20
2022-11-24T03:43:43.261Z,15.90
2022-11-24T03:46:11.686Z,15.73
2022-11-24T03:48:39.073Z,13.17
2022-11-24T03:51:06.071Z,13.17
2022-11-24T03:53:33.621Z,17.17
2022-11-24T03:56:00.433Z,14.80
2022-11-24T03:58:27.008Z,18.57
2022-11-24T04:00:54.113Z,15.63
2022-11-24T04:03:21.301Z,11.77
2022-11-24T04:05:48.314Z,8.07
2022-11-24T04:08:15.771Z,9.73
2022-11-24T04:10:43.030Z,13.47
2022-11-24T04:13:21.875Z,15.03
2022-11-24T04:15:51.652Z,14.10
2022-11-24T04:18:19.882Z,14.07
2022-11-24T04:20:50.528Z,9.20
2022-11-24T04:23:17.587Z,7.63
2022-11-24T04:25:44.166Z,16.67
2022-11-24T04:28:10.860Z,13.50
2022-11-24T04:30:40.102Z,11.60
2022-11-24T04:33:06.666Z,17.13
2022-11-24T04:35:33.282Z,15.30
2022-11-24T04:38:02.929Z,13.77
2022-11-24T04:40:30.018Z,10.10
2022-11-24T04:42:57.041Z,17.17
2022-11-24T04:45:24.405Z,11.10
2022-11-24T04:47:51.565Z,17.87
2022-11-24T04:50:18.840Z,19.83
2022-11-24T04:52:45.860Z,13.83
2022-11-24T04:55:12.870Z,12.90
2022-11-24T04:57:39.638Z,15.30
2022-11-24T05:00:07.585Z,14.97
2022-11-24T05:02:34.198Z,11.60
2022-11-24T05:05:00.897Z,11.00
2022-11-24T05:07:27.540Z,13.77
2022-11-24T05:10:12.606Z,15.07
2022-11-24T05:12:39.426Z,14.50
2022-11-24T05:15:06.776Z,18.17
2022-11-24T05:17:36.781Z,12.13
2022-11-24T05:20:05.600Z,18.40
2022-11-24T05:22:32.318Z,17.57
2022-11-24T05:24:59.045Z,11.47
2022-11-24T05:27:25.661Z,12.37
2022-11-24T05:29:52.219Z,13.90
2022-11-24T05:32:18.859Z,16.87
2022-11-24T05:34:45.488Z,10.83
2022-11-24T05:37:12.111Z,16.10
2022-11-24T05:39:38.789Z,15.53
2022-11-24T05:42:26.023Z,15.83
2022-11-24T05:44:53.435Z,13.67
2022-11-24T05:47:20.956Z,8.10
2022-11-24T05:49:47.767Z,9.17
2022-11-24T05:52:14.856Z,8.80
2022-11-24T05:54:41.457Z,15.53
2022-11-24T05:57:08.074Z,15.67
2022-11-24T05:59:34.724Z,17.83
2022-11-24T06:02:01.656Z,16.17
2022-11-24T06:04:28.419Z,18.47
2022-11-24T06:06:55.040Z,15.40
2022-11-24T06:09:21.715Z,13.00
2022-11-24T06:11:48.565Z,20.07
2022-11-24T06:14:15.272Z,11.83
2022-11-24T06:16:41.952Z,15.87
2022-11-24T06:19:10.505Z,9.13
2022-11-24T06:21:37.113Z,12.80
2022-11-24T06:24:04.286Z,14.37
2022-11-24T06:26:30.935Z,16.73
2022-11-24T06:28:57.614Z,10.50
2022-11-24T06:31:24.257Z,6.70
2022-11-24T06:33:51.003Z,11.77
2022-11-24T06:36:17.580Z,9.93
2022-11-24T06:38:44.153Z,9.03
2022-11-24T06:41:13.842Z,6.70
2022-11-24T06:43:40.808Z,13.90
2022-11-24T06:46:07.936Z,9.57
2022-11-24T06:48:34.673Z,16.70
2022-11-24T06:51:03.280Z,11.07
2022-11-24T06:53:38.276Z,11.27
2022-11-24T06:56:10.740Z,10.30
2022-11-24T06:58:45.464Z,9.47
2022-11-24T07:01:20.656Z,8.00
2022-11-24T07:03:48.491Z,12.20
2022-11-24T07:06:16.020Z,8.90
2022-11-24T07:08:42.757Z,11.67
2022-11-24T07:11:12.039Z,10.33
2022-11-24T07:13:38.663Z,8.97
2022-11-24T07:16:25.266Z,9.23
2022-11-24T07:18:53.479Z,9.03
2022-11-24T07:21:22.523Z,10.63
2022-11-24T07:23:52.984Z,10.03
2022-11-24T07:26:20.530Z,12.40
2022-11-24T07:28:47.264Z,6.43
2022-11-24T07:31:19.356Z,10.33
2022-11-24T07:33:50.105Z,9.53
2022-11-24T07:36:17.034Z,11.73
2022-11-24T07:38:43.654Z,7.80
2022-11-24T07:41:12.463Z,7.27
2022-11-24T07:43:39.494Z,5.07
2022-11-24T07:46:08.763Z,6.57
2022-11-24T07:48:35.423Z,6.50
2022-11-24T07:51:04.228Z,6.37
2022-11-24T07:53:32.106Z,9.47
2022-11-24T07:56:01.023Z,11.27
2022-11-24T07:58:32.745Z,6.93
2022-11-24T08:01:00.966Z,11.43
2022-11-24T08:03:27.910Z,5.83
2022-11-24T08:06:22.332Z,7.10
2022-11-24T08:08:42.465Z,7.30
2022-11-24T08:11:14.455Z,7.03
2022-11-24T08:13:41.780Z,6.50
2022-11-24T08:16:19.524Z,5.30
2022-11-24T08:18:54.236Z,7.70
2022-11-24T08:21:23.594Z,9.60
2022-11-24T08:23:57.313Z,6.43
2022-11-24T08:26:24.996Z,6.30
2022-11-24T08:28:59.310Z,7.70
2022-11-24T08:31:33.004Z,6.50
2022-11-24T08:34:00.535Z,7.33
2022-11-24T08:36:27.178Z,9.80
2022-11-24T08:38:56.365Z,6.13
2022-11-24T08:41:22.996Z,8.70
2022-11-24T08:43:49.649Z,4.87
2022-11-24T08:46:18.420Z,7.83
2022-11-24T08:48:48.956Z,7.30
2022-11-24T08:51:17.914Z,8.73
2022-11-24T08:53:44.703Z,4.40
2022-11-24T08:56:13.154Z,5.40
2022-11-24T08:58:40.535Z,5.20
2022-11-24T09:01:15.027Z,6.57
2022-11-24T09:03:48.464Z,10.47
2022-11-24T09:06:19.302Z,5.27
2022-11-24T09:08:46.061Z,6.67
2022-11-24T09:11:15.432Z,9.53
2022-11-24T09:13:42.480Z,6.73
2022-11-24T09:16:10.774Z,10.30
2022-11-24T09:18:38.000Z,4.97
2022-11-24T09:21:16.281Z,5.90
2022-11-24T09:23:43.812Z,7.33
2022-11-24T09:26:13.078Z,5.03
2022-11-24T09:28:40.539Z,6.60
2022-11-24T09:31:10.613Z,11.37
2022-11-24T09:33:38.242Z,10.23
2022-11-24T09:36:06.047Z,14.43
2022-11-24T09:38:33.022Z,7.10
2022-11-24T09:41:18.039Z,6.63
2022-11-24T09:43:49.902Z,7.03
2022-11-24T09:46:26.817Z,4.73
2022-11-24T09:48:56.825Z,4.93
2022-11-24T09:51:28.729Z,6.20
2022-11-24T09:54:02.473Z,6.97
2022-11-24T09:56:33.277Z,8.20
2022-11-24T09:59:17.053Z,6.80
2022-11-24T10:01:45.573Z,7.30
2022-11-24T10:04:19.531Z,8.07
2022-11-24T10:07:22.745Z,6.27
2022-11-24T10:10:22.845Z,5.27
2022-11-24T10:13:23.991Z,8.67
2022-11-24T10:16:11.726Z,3.67
2022-11-24T10:19:21.905Z,5.33
2022-11-24T10:21:58.755Z,4.07
2022-11-24T10:24:40.516Z,4.80
2022-11-24T10:27:19.458Z,5.53
2022-11-24T10:29:51.325Z,12.07
2022-11-24T10:32:25.417Z,4.33
2022-11-24T10:34:54.079Z,1.77
2022-11-24T10:37:25.509Z,3.67
2022-11-24T10:40:56.864Z,6.10
2022-11-24T10:43:15.172Z,7.20
2022-11-24T10:45:41.941Z,2.83
2022-11-24T10:48:22.098Z,3.97
2022-11-24T10:50:48.813Z,4.03
2022-11-24T10:53:22.109Z,2.90
2022-11-24T10:55:57.467Z,8.77
2022-11-24T10:58:34.417Z,5.17
2022-11-24T11:01:13.249Z,5.20
2022-11-24T11:03:53.302Z,4.00
2022-11-24T11:06:25.939Z,8.63
2022-11-24T11:09:07.564Z,5.30
2022-11-24T11:11:42.880Z,9.87
2022-11-24T11:14:13.027Z,5.43
2022-11-24T11:16:52.355Z,4.00
2022-11-24T11:19:50.515Z,4.63
2022-11-24T11:22:26.486Z,4.00
2022-11-24T11:25:29.590Z,4.60
2022-11-24T11:28:21.701Z,3.27
2022-11-24T11:31:22.630Z,4.30
2022-11-24T11:34:10.514Z,6.10
2022-11-24T11:36:51.519Z,3.57
2022-11-24T11:39:32.217Z,2.97
2022-11-24T11:42:38.025Z,1.93
2022-11-24T11:45:18.269Z,3.10
2022-11-24T11:47:55.832Z,2.07
2022-11-24T11:51:15.031Z,3.03
2022-11-24T11:53:38.069Z,8.70
2022-11-24T11:56:30.126Z,7.00
2022-11-24T11:59:34.942Z,7.97
2022-11-24T12:02:24.024Z,2.67
2022-11-24T12:05:14.823Z,4.00
2022-11-24T12:08:20.496Z,4.80
2022-11-24T12:11:19.060Z,4.07
2022-11-24T12:14:17.268Z,5.27
2022-11-24T12:17:13.703Z,13.40
2022-11-24T12:20:00.605Z,2.43
2022-11-24T12:22:39.150Z,7.93
2022-11-24T12:25:09.191Z,3.30
2022-11-24T12:28:03.531Z,5.73
2022-11-24T12:30:59.082Z,3.53
2022-11-24T12:33:53.234Z,5.37
2022-11-24T12:36:40.938Z,6.57
2022-11-24T12:39:32.243Z,4.83
2022-11-24T12:42:09.772Z,7.30
2022-11-24T12:45:07.390Z,3.27
2022-11-24T12:47:45.167Z,7.67
2022-11-24T12:50:31.049Z,6.77
2022-11-24T12:53:04.542Z,8.37
2022-11-24T12:55:33.878Z,6.60
2022-11-24T12:58:11.951Z,3.70
2022-11-24T13:00:44.410Z,7.30
2022-11-24T13:03:19.848Z,4.90
2022-11-24T13:05:52.356Z,4.30
2022-11-24T13:08:19.550Z,8.50
2022-11-24T13:10:55.716Z,2.80
2022-11-24T13:13:26.627Z,6.70
2022-11-24T13:16:13.058Z,2.83
2022-11-24T13:18:47.705Z,4.40
2022-11-24T13:21:32.703Z,4.17
2022-11-24T13:24:02.512Z,3.33
2022-11-24T13:26:51.410Z,6.27
2022-11-24T13:29:37.647Z,3.27
2022-11-24T13:32:07.222Z,3.77
2022-11-24T13:34:43.060Z,9.50
2022-11-24T13:37:35.884Z,2.50
2022-11-24T13:40:22.976Z,4.93
2022-11-24T13:42:58.744Z,3.90
2022-11-24T13:45:41.192Z,6.57
2022-11-24T13:48:20.823Z,7.33
2022-11-24T13:50:51.085Z,3.73
2022-11-24T13:53:47.447Z,5.77
2022-11-24T13:56:14.270Z,7.00
2022-11-24T13:58:57.870Z,3.93
2022-11-24T14:01:28.539Z,3.97
2022-11-24T14:04:31.530Z,5.13
2022-11-24T14:07:07.821Z,5.20
2022-11-24T14:09:45.937Z,3.47
2022-11-24T14:12:15.347Z,5.50
2022-11-24T14:14:44.116Z,6.60
2022-11-24T14:17:22.202Z,4.93
2022-11-24T14:19:56.665Z,1.73
2022-11-24T14:22:40.147Z,2.73
2022-11-24T14:25:27.588Z,4.67
2022-11-24T14:27:54.444Z,4.47
2022-11-24T14:30:22.687Z,6.73
2022-11-24T14:32:57.425Z,5.80
2022-11-24T14:35:25.016Z,2.93
2022-11-24T14:37:51.807Z,5.23
2022-11-24T14:40:45.301Z,6.10
2022-11-24T14:43:32.094Z,4.77
2022-11-24T14:46:18.270Z,5.47
2022-11-24T14:48:49.590Z,5.17
2022-11-24T14:51:19.960Z,4.20
2022-11-24T14:53:51.761Z,5.07
2022-11-24T14:56:38.668Z,2.23
2022-11-24T14:59:21.134Z,5.23
2022-11-24T15:01:47.859Z,4.00
2022-11-24T15:04:54.166Z,5.63
2022-11-24T15:07:27.155Z,4.37
2022-11-24T15:09:59.235Z,3.77
2022-11-24T15:12:34.752Z,1.83
2022-11-24T15:15:20.207Z,6.80
2022-11-24T15:17:50.293Z,6.83
2022-11-24T15:20:22.773Z,6.73
2022-11-24T15:22:52.307Z,2.73
2022-11-24T15:25:32.656Z,4.33
2022-11-24T15:28:00.231Z,3.83
2022-11-24T15:30:27.647Z,6.93
2022-11-24T15:32:58.815Z,8.57
2022-11-24T15:35:28.624Z,7.33
2022-11-24T15:37:55.308Z,4.73
2022-11-24T15:40:22.023Z,6.57
2022-11-24T15:42:57.897Z,6.83
2022-11-24T15:45:26.502Z,9.30
2022-11-24T15:47:53.286Z,4.10
2022-11-24T15:50:20.994Z,6.03
2022-11-24T15:52:48.251Z,11.50
2022-11-24T15:55:20.385Z,12.17
2022-11-24T15:57:47.453Z,8.30
2022-11-24T16:00:19.694Z,7.13
2022-11-24T16:02:46.639Z,6.70
2022-11-24T16:05:14.217Z,6.17
2022-11-24T16:07:41.113Z,6.80
2022-11-24T16:10:17.928Z,10.83
2022-11-24T16:12:44.528Z,6.33
2022-11-24T16:15:11.126Z,5.00
2022-11-24T16:17:37.812Z,9.23
2022-11-24T16:20:05.183Z,6.83
2022-11-24T16:22:31.823Z,10.30
2022-11-24T16:24:58.416Z,9.70
2022-11-24T16:27:25.010Z,5.50
2022-11-24T16:29:51.782Z,8.13
2022-11-24T16:32:18.372Z,7.90
2022-11-24T16:34:44.984Z,11.77
2022-11-24T16:37:11.632Z,7.50
2022-11-24T16:39:38.270Z,6.97
2022-11-24T16:42:05.310Z,7.23
2022-11-24T16:44:32.083Z,10.40
2022-11-24T16:46:58.951Z,8.17
2022-11-24T16:49:25.682Z,7.47
2022-11-24T16:51:52.293Z,9.87
2022-11-24T16:54:19.080Z,9.13
2022-11-24T16:56:45.792Z,7.17
2022-11-24T16:59:12.773Z,7.13
2022-11-24T17:01:41.835Z,8.90
2022-11-24T17:04:12.593Z,7.13
2022-11-24T17:06:39.772Z,10.90
2022-11-24T17:09:06.776Z,9.07
2022-11-24T17:11:33.419Z,9.07
2022-11-24T17:14:00.212Z,11.13
2022-11-24T17:16:27.121Z,10.63
2022-11-24T17:18:54.300Z,9.53
2022-11-24T17:21:23.416Z,9.97
2022-11-24T17:23:57.341Z,14.70
2022-11-24T17:26:25.252Z,13.17
2022-11-24T17:28:52.201Z,10.97
2022-11-24T17:31:25.618Z,12.00
2022-11-24T17:33:57.597Z,10.87
2022-11-24T17:36:24.756Z,12.07
2022-11-24T17:38:51.818Z,13.10
2022-11-24T17:41:19.516Z,12.33
2022-11-24T17:43:55.422Z,17.57
2022-11-24T17:46:22.335Z,12.60
2022-11-24T17:48:48.999Z,11.00
2022-11-24T17:51:18.199Z,11.63
2022-11-24T17:53:47.065Z,7.63
2022-11-24T17:56:15.987Z,11.53
2022-11-24T17:58:43.555Z,12.10
2022-11-24T18:01:11.899Z,12.67
2022-11-24T18:03:39.800Z,14.30
2022-11-24T18:06:11.349Z,10.97
2022-11-24T18:08:40.125Z,7.63
2022-11-24T18:11:08.795Z,11.80
2022-11-24T18:13:55.846Z,9.07
2022-11-24T18:16:24.181Z,9.17
2022-11-24T18:19:07.300Z,14.00
2022-11-24T18:21:35.241Z,15.60
2022-11-24T18:24:02.023Z,12.90
2022-11-24T18:26:28.699Z,12.43
2022-11-24T18:28:55.341Z,12.57
2022-11-24T18:31:22.412Z,14.77
2022-11-24T18:33:49.282Z,15.93
2022-11-24T18:36:18.106Z,12.07
2022-11-24T18:38:45.113Z,15.27
2022-11-24T18:41:13.734Z,11.47
2022-11-24T18:43:40.812Z,11.53
2022-11-24T18:46:13.144Z,13.50
2022-11-24T18:48:40.340Z,15.27
2022-11-24T18:51:08.558Z,13.97
2022-11-24T18:53:35.225Z,13.63
2022-11-24T18:56:05.302Z,13.40
2022-11-24T18:58:33.204Z,12.87
2022-11-24T19:01:08.608Z,11.00
2022-11-24T19:03:46.533Z,12.47
2022-11-24T19:06:24.724Z,12.00
2022-11-24T19:08:53.457Z,10.27
2022-11-24T19:11:28.661Z,13.73
2022-11-24T19:13:56.361Z,13.73
2022-11-24T19:16:23.639Z,13.60
2022-11-24T19:18:54.121Z,13.33
2022-11-24T19:21:21.940Z,14.40
2022-11-24T19:23:49.003Z,16.67
2022-11-24T19:26:15.717Z,17.60
2022-11-24T19:28:42.335Z,20.97
2022-11-24T19:31:11.661Z,15.03
2022-11-24T19:33:39.271Z,14.97
2022-11-24T19:36:10.630Z,16.97
2022-11-24T19:38:37.406Z,21.83
2022-11-24T19:41:06.510Z,20.17
2022-11-24T19:43:34.209Z,17.90
2022-11-24T19:46:12.710Z,15.43
2022-11-24T19:48:42.856Z,17.57
2022-11-24T19:51:13.249Z,15.43
2022-11-24T19:53:40.360Z,12.13
2022-11-24T19:56:16.601Z,14.53
2022-11-24T19:58:43.410Z,12.63
2022-11-24T20:01:12.663Z,13.67
2022-11-24T20:03:40.872Z,16.30
2022-11-24T20:06:09.465Z,14.23
2022-11-24T20:08:37.737Z,15.57
2022-11-24T20:11:04.712Z,12.93
2022-11-24T20:13:32.273Z,13.13
2022-11-24T20:16:06.302Z,12.70
2022-11-24T20:18:37.546Z,14.43
2022-11-24T20:21:07.473Z,12.70
2022-11-24T20:23:34.451Z,15.13
2022-11-24T20:26:11.063Z,12.27
2022-11-24T20:28:37.991Z,12.47
2022-11-24T20:31:10.416Z,11.23
2022-11-24T20:33:37.859Z,14.57
2022-11-24T20:36:10.088Z,13.17
2022-11-24T20:38:38.291Z,14.67
2022-11-24T20:41:16.472Z,10.93
2022-11-24T20:43:44.200Z,11.83
2022-11-24T20:46:20.108Z,11.00
2022-11-24T20:48:48.942Z,10.80
2022-11-24T20:51:21.806Z,11.40
2022-11-24T20:53:53.308Z,17.50
2022-11-24T20:56:22.542Z,11.53
2022-11-24T20:58:49.978Z,15.63
2022-11-24T21:01:22.643Z,11.73
2022-11-24T21:03:57.027Z,12.33
2022-11-24T21:06:24.465Z,13.90
2022-11-24T21:08:51.646Z,9.93
2022-11-24T21:11:19.627Z,8.03
2022-11-24T21:13:48.636Z,10.13
2022-11-24T21:16:18.680Z,10.70
2022-11-24T21:18:47.991Z,13.70
2022-11-24T21:21:14.643Z,10.33
2022-11-24T21:23:41.335Z,11.17
2022-11-24T21:26:14.834Z,15.10
2022-11-24T21:28:44.791Z,13.37
2022-11-24T21:31:13.791Z,12.30
2022-11-24T21:33:42.109Z,10.20
2022-11-24T21:36:09.107Z,13.43
2022-11-24T21:38:35.969Z,11.20
2022-11-24T21:41:04.926Z,7.93
2022-11-24T21:43:32.867Z,9.90
2022-11-24T21:46:05.193Z,10.27
2022-11-24T21:48:33.681Z,12.13
2022-11-24T21:51:02.194Z,8.37
2022-11-24T21:53:35.587Z,8.73
2022-11-24T21:56:09.677Z,12.93
2022-11-24T21:58:36.648Z,9.43
2022-11-24T22:01:05.539Z,13.87
2022-11-24T22:03:32.398Z,10.77
2022-11-24T22:06:00.319Z,12.80
2022-11-24T22:08:28.998Z,12.40
2022-11-24T22:11:15.933Z,12.57
2022-11-24T22:13:43.786Z,13.87
2022-11-24T22:16:21.451Z,16.03
2022-11-24T22:18:48.703Z,14.67
2022-11-24T22:21:24.384Z,13.40
2022-11-24T22:23:52.624Z,13.60
2022-11-24T22:26:21.707Z,12.53
2022-11-24T22:28:48.635Z,14.67
2022-11-24T22:31:18.057Z,13.90
2022-11-24T22:33:45.552Z,10.87
2022-11-24T22:36:14.220Z,10.87
2022-11-24T22:38:41.733Z,11.10
2022-11-24T22:41:11.280Z,12.23
2022-11-24T22:43:39.696Z,12.13
2022-11-24T22:46:11.553Z,14.47
2022-11-24T22:48:39.293Z,12.40
2022-11-24T22:51:08.576Z,11.00
2022-11-24T22:53:35.556Z,13.70
2022-11-24T22:56:04.197Z,13.33
2022-11-24T22:58:32.276Z,11.33
2022-11-24T23:01:08.890Z,12.90
2022-11-24T23:03:36.501Z,10.23
2022-11-24T23:06:06.191Z,12.70
2022-11-24T23:08:34.419Z,13.57
2022-11-24T23:11:03.075Z,17.73
2022-11-24T23:13:29.784Z,12.60
2022-11-24T23:16:01.511Z,17.63
2022-11-24T23:18:28.598Z,13.37
2022-11-24T23:20:55.388Z,12.10
2022-11-24T23:23:22.092Z,11.47
2022-11-24T23:25:48.771Z,12.90
2022-11-24T23:28:15.381Z,11.67
2022-11-24T23:30:42.134Z,12.47
2022-11-24T23:33:08.737Z,13.07
2022-11-24T23:35:36.122Z,12.73
2022-11-24T23:38:09.811Z,13.40
2022-11-24T23:40:36.508Z,14.10
2022-11-24T23:43:03.153Z,9.23
2022-11-24T23:45:29.805Z,11.50
2022-11-24T23:47:56.407Z,15.83
2022-11-24T23:50:23.020Z,11.03
2022-11-24T23:52:49.639Z,12.30
2022-11-24T23:55:17.263Z,11.50
2022-11-24T23:57:43.833Z,13.40
